Página principal
METAR-TAF:

METAR-TAF

Aeroportos :

Anguilla, Anguilla

latitude: 18-12-17N, longitude: 063-03-18W, altura: 31 m

Observação actual do tempo

O boletim foi feito há 7 horas e 27 minutos, às 03:00 UTC
Vento 6 kt de es-nordeste
Temperatura 22°C
Humidade 83%
Pressão 1018 hPa
Visibilidade 10 km ou mais
Poucas nuvensa uma altura de 1900 ft

METAR: TQPF 190300Z 06006KT 9999 FEW019 22/19 Q1018

Hora: 06:27 (10:27 UTC)

Previsão

O boletim foi feito há 11 horas e 27 minutos, às 23:00 UTC
Previsão válida de 19 às 00 UTC a 19 às 24 UTC
Vento 10 kt de este
Visibilidade 10 km ou mais
Nuvens dispersasa uma altura de 1800 ft

TAF: TQPF 182300Z 1900/1924 08010KT 9999 SCT018

Observações e previsões do tempo de mais de 4000 aeroportos (mensagens METAR e TAF).

As estações disponíveis são os pontos amarelos e vermelhos sobre o mapa.

Mova o rato sobre o mapa para ver o nome da estação.

Depois clique no ponto para visualizar as observações e previsões meteorológicas.

Para alterar o mapa : clique nos botões verdes com uma cruz preta para aumentar o zoom; no botão verde com uma pitada de zoom; ou nas setas verdes para mapas adjacentes.


METAR-TAF: